createdAt,value
2022-09-01T00:09:27.340Z,67.09
2022-09-01T00:19:29.842Z,54.23
2022-09-01T00:29:31.597Z,54.36
2022-09-01T00:39:33.461Z,69.16
2022-09-01T00:49:37.313Z,64.56
2022-09-01T00:59:42.399Z,51.88
2022-09-01T01:09:45.583Z,51.98
2022-09-01T01:20:06.260Z,55.10
2022-09-01T01:30:11.251Z,54.86
2022-09-01T01:40:15.974Z,74.23
2022-09-01T01:50:18.249Z,68.06
2022-09-01T02:00:27.066Z,54.08
2022-09-01T02:10:33.690Z,53.49
2022-09-01T02:20:35.721Z,70.76
2022-09-01T02:30:39.120Z,65.32
2022-09-01T02:40:47.019Z,50.50
2022-09-01T02:50:49.708Z,51.02
2022-09-01T03:00:56.533Z,54.48
2022-09-01T03:11:01.657Z,72.18
2022-09-01T03:21:04.550Z,66.28
2022-09-01T03:31:08.139Z,51.30
2022-09-01T03:41:13.518Z,51.28
2022-09-01T03:51:15.483Z,54.26
2022-09-01T04:01:17.492Z,71.86
2022-09-01T04:11:23.785Z,65.83
2022-09-01T04:21:26.861Z,50.90
2022-09-01T04:31:31.043Z,51.23
2022-09-01T04:41:33.527Z,54.32
2022-09-01T04:51:39.947Z,72.52
2022-09-01T05:01:45.454Z,65.94
2022-09-01T05:11:51.611Z,51.94
2022-09-01T05:22:13.512Z,52.80
2022-09-01T05:32:19.478Z,62.02
2022-09-01T05:42:21.844Z,52.48
2022-09-01T05:52:26.489Z,58.39
2022-09-01T06:02:31.059Z,68.62
2022-09-01T06:12:34.597Z,52.75
2022-09-01T06:22:37.213Z,52.61
2022-09-01T06:32:39.135Z,54.47
2022-09-01T06:42:41.901Z,51.70
2022-09-01T07:03:09.741Z,32.28
2022-09-01T07:13:35.803Z,28.07
2022-09-01T07:24:06.007Z,25.84
2022-09-01T07:44:38.596Z,17.92
2022-09-01T07:55:03.981Z,17.25
2022-09-01T08:05:09.582Z,18.06
2022-09-01T08:15:38.009Z,18.19
2022-09-01T08:25:36.207Z,15.79
2022-09-01T08:35:39.722Z,15.41
2022-09-01T08:45:55.463Z,14.37
2022-09-01T08:55:59.260Z,14.62
2022-09-01T09:06:01.072Z,15.35
2022-09-01T09:16:12.365Z,13.93
2022-09-01T09:26:16.761Z,14.25
2022-09-01T09:36:34.817Z,13.69
2022-09-01T09:46:46.118Z,13.16
2022-09-01T09:56:48.845Z,12.68
2022-09-01T10:06:50.590Z,16.41
2022-09-01T10:16:56.366Z,22.79
2022-09-01T10:27:00.805Z,23.79
2022-09-01T10:37:03.243Z,21.44
2022-09-01T10:47:26.500Z,21.93
2022-09-01T10:57:42.242Z,23.90
2022-09-01T11:08:14.849Z,25.02
2022-09-01T11:18:35.869Z,26.82
2022-09-01T11:28:39.931Z,30.00
2022-09-01T11:38:55.407Z,30.86
2022-09-01T11:48:58.292Z,31.56
2022-09-01T11:59:00.150Z,31.56
2022-09-01T12:09:05.083Z,31.55
2022-09-01T12:19:08.769Z,33.00
2022-09-01T12:29:13.946Z,32.88
2022-09-01T12:39:23.468Z,32.06
2022-09-01T12:49:28.833Z,31.71
2022-09-01T12:59:36.193Z,32.26
2022-09-01T13:09:39.350Z,33.05
2022-09-01T13:19:41.260Z,32.95
2022-09-01T13:29:43.298Z,33.11
2022-09-01T13:39:47.314Z,33.94
2022-09-01T14:00:11.101Z,33.48
2022-09-01T14:10:14.472Z,33.65
2022-09-01T14:20:21.533Z,34.38
2022-09-01T14:30:29.038Z,35.02
2022-09-01T14:40:32.531Z,35.52
2022-09-01T14:50:35.196Z,36.24
2022-09-01T15:00:37.936Z,36.83
2022-09-01T15:10:40.366Z,37.80
2022-09-01T15:20:45.732Z,39.09
2022-09-01T15:30:47.712Z,41.53
2022-09-01T15:40:53.620Z,42.68
2022-09-01T15:51:22.039Z,43.39
2022-09-01T16:01:24.059Z,43.88
2022-09-01T16:11:26.626Z,43.82
2022-09-01T16:21:28.364Z,43.39
2022-09-01T16:31:31.858Z,42.79
2022-09-01T16:41:44.301Z,43.40
2022-09-01T16:52:05.747Z,43.88
2022-09-01T17:02:09.837Z,45.38
2022-09-01T17:12:31.231Z,49.64
2022-09-01T17:22:34.460Z,51.60
2022-09-01T17:32:48.298Z,53.11
2022-09-01T17:42:55.297Z,54.85
2022-09-01T17:53:00.332Z,56.30
2022-09-01T18:03:20.199Z,74.64
2022-09-01T18:13:49.239Z,66.92
2022-09-01T18:23:51.643Z,48.79
2022-09-01T18:34:09.576Z,47.81
2022-09-01T18:44:11.610Z,50.41
2022-09-01T18:54:20.439Z,52.95
2022-09-01T19:04:43.627Z,55.22
2022-09-01T19:15:01.225Z,73.40
2022-09-01T19:25:25.475Z,66.89
2022-09-01T19:35:29.446Z,49.68
2022-09-01T19:45:53.162Z,48.96
2022-09-01T19:55:55.038Z,51.38
2022-09-01T20:06:03.192Z,51.54
2022-09-01T20:16:14.645Z,55.64
2022-09-01T20:26:23.531Z,72.79
2022-09-01T20:36:31.611Z,67.18
2022-09-01T20:46:33.735Z,51.16
2022-09-01T20:56:35.839Z,49.58
2022-09-01T21:06:56.236Z,52.22
2022-09-01T21:17:03.948Z,54.53
2022-09-01T21:27:07.958Z,72.19
2022-09-01T21:37:10.188Z,65.59
2022-09-01T21:47:12.827Z,51.46
2022-09-01T21:57:15.129Z,50.34
2022-09-01T22:07:19.586Z,53.00
2022-09-01T22:17:21.990Z,55.65
2022-09-01T22:27:24.136Z,73.67
2022-09-01T22:37:26.489Z,67.75
2022-09-01T22:47:28.426Z,50.96
2022-09-01T22:57:30.518Z,50.26
2022-09-01T23:07:32.769Z,53.05
2022-09-01T23:17:36.806Z,55.81
2022-09-01T23:27:39.457Z,74.10
2022-09-01T23:37:42.551Z,67.18
2022-09-01T23:47:46.075Z,51.52
2022-09-01T23:57:48.247Z,50.41
